PAEI

Eielson Air Force Base

Airport
ICAO code
PAEI
Summary
ICAO Region
NAM
ICAO Territory
Location

Fairbanks, Alaska,

Coordinates
64° 39' 2" N , 147° 4' 1" W
KCC
Airport BS
Non Avian Wildlife Hazards to Aircraft
Airport CFIT
Altimeter Temperature Error Correction
Metar
PAEI 130055Z 27011KT 10SM BKN055 OVC070 04/M03 A2943 RMK AO2A SLP974 T00411027 $

Description

Eilson Air Force Base is a United States Air Force base located near Moose Creek, a town 42 km southeast of Fairbanks, Alaska.

Climatology

Subarctic climate (Köppen climate classification Dfc) - long, usually very cold winters, and short, cool to mild summers.

Runways

Designator Length Width Surface Rops
14/32 4429 46 CONC Yes/Yes

Airport map

Aerial View

SKYbrary Partners:

Safety knowledge contributed by: